createdAt,value
2022-09-10T00:01:24.669Z,99.90
2022-09-10T00:03:54.166Z,99.90
2022-09-10T00:06:25.074Z,99.90
2022-09-10T00:08:53.385Z,99.90
2022-09-10T00:11:21.148Z,99.90
2022-09-10T00:13:49.534Z,99.90
2022-09-10T00:16:19.332Z,99.90
2022-09-10T00:18:47.828Z,99.90
2022-09-10T00:21:20.897Z,99.90
2022-09-10T00:23:48.880Z,99.90
2022-09-10T00:26:22.079Z,99.90
2022-09-10T00:28:51.315Z,99.90
2022-09-10T00:31:19.770Z,99.90
2022-09-10T00:33:47.162Z,99.90
2022-09-10T00:36:17.759Z,99.90
2022-09-10T00:38:45.594Z,99.90
2022-09-10T00:41:13.484Z,99.90
2022-09-10T00:43:54.793Z,99.90
2022-09-10T00:46:48.605Z,99.90
2022-09-10T00:49:26.349Z,99.90
2022-09-10T00:51:54.602Z,99.90
2022-09-10T00:54:25.322Z,99.90
2022-09-10T00:56:55.406Z,99.90
2022-09-10T00:59:26.817Z,99.90
2022-09-10T01:01:56.377Z,99.90
2022-09-10T01:04:24.165Z,99.90
2022-09-10T01:06:52.289Z,99.90
2022-09-10T01:09:21.763Z,99.90
2022-09-10T01:12:01.800Z,99.90
2022-09-10T01:14:49.225Z,99.90
2022-09-10T01:17:42.144Z,99.90
2022-09-10T01:20:31.047Z,99.90
2022-09-10T01:23:55.613Z,99.90
2022-09-10T01:26:26.201Z,99.90
2022-09-10T01:29:05.801Z,99.90
2022-09-10T01:32:00.701Z,99.90
2022-09-10T01:34:43.096Z,99.90
2022-09-10T01:37:21.842Z,99.90
2022-09-10T01:39:51.317Z,99.90
2022-09-10T01:42:19.332Z,99.90
2022-09-10T01:44:51.505Z,99.90
2022-09-10T01:47:54.852Z,99.90
2022-09-10T01:50:38.742Z,99.90
2022-09-10T01:53:29.105Z,99.90
2022-09-10T01:56:14.059Z,99.90
2022-09-10T01:58:44.344Z,99.90
2022-09-10T02:01:33.045Z,99.90
2022-09-10T02:04:06.075Z,99.90
2022-09-10T02:06:38.503Z,99.90
2022-09-10T02:09:08.465Z,99.90
2022-09-10T02:12:05.387Z,99.90
2022-09-10T02:14:58.421Z,99.90
2022-09-10T02:17:48.186Z,99.90
2022-09-10T02:20:16.478Z,99.90
2022-09-10T02:22:51.220Z,99.90
2022-09-10T02:25:19.247Z,99.90
2022-09-10T02:27:46.740Z,99.90
2022-09-10T02:30:14.234Z,99.90
2022-09-10T02:32:43.231Z,99.90
2022-09-10T02:35:14.197Z,99.90
2022-09-10T02:37:43.386Z,99.90
2022-09-10T02:40:12.750Z,99.90
2022-09-10T02:42:40.190Z,99.90
2022-09-10T02:45:08.511Z,99.90
2022-09-10T02:47:37.300Z,99.90
2022-09-10T02:50:05.319Z,99.90
2022-09-10T02:52:34.486Z,99.90
2022-09-10T02:55:02.552Z,99.90
2022-09-10T02:57:30.063Z,99.90
2022-09-10T02:59:57.616Z,99.90
2022-09-10T03:02:25.028Z,99.90
2022-09-10T03:04:52.348Z,99.90
2022-09-10T03:07:20.519Z,99.90
2022-09-10T03:09:48.125Z,99.90
2022-09-10T03:12:16.562Z,99.90
2022-09-10T03:14:44.322Z,99.90
2022-09-10T03:17:11.738Z,99.90
2022-09-10T03:19:40.452Z,99.90
2022-09-10T03:22:07.827Z,99.90
2022-09-10T03:24:36.782Z,99.90
2022-09-10T03:27:07.143Z,99.90
2022-09-10T03:29:36.892Z,99.90
2022-09-10T03:32:04.383Z,99.90
2022-09-10T03:34:32.260Z,99.90
2022-09-10T03:36:59.737Z,99.90
2022-09-10T03:39:28.225Z,99.90
2022-09-10T03:41:55.763Z,99.90
2022-09-10T03:44:23.203Z,99.90
2022-09-10T03:46:51.582Z,99.90
2022-09-10T03:49:19.291Z,99.90
2022-09-10T03:51:48.635Z,99.90
2022-09-10T03:54:17.106Z,99.90
2022-09-10T03:56:45.424Z,99.90
2022-09-10T03:59:13.807Z,99.90
2022-09-10T04:01:42.514Z,99.90
2022-09-10T04:04:10.688Z,99.90
2022-09-10T04:06:38.902Z,99.90
2022-09-10T04:09:07.067Z,99.90
2022-09-10T04:11:36.328Z,99.90
2022-09-10T04:14:04.189Z,99.90
2022-09-10T04:16:32.820Z,99.90
2022-09-10T04:19:00.897Z,99.90
2022-09-10T04:21:29.489Z,99.90
2022-09-10T04:23:59.645Z,99.90
2022-09-10T04:26:28.031Z,99.90
2022-09-10T04:28:55.981Z,99.90
2022-09-10T04:31:23.626Z,99.90
2022-09-10T04:33:54.076Z,99.90
2022-09-10T04:36:26.863Z,99.90
2022-09-10T04:38:55.077Z,99.90
2022-09-10T04:41:22.615Z,99.90
2022-09-10T04:43:50.590Z,99.90
2022-09-10T04:46:18.076Z,99.90
2022-09-10T04:48:46.671Z,99.90
2022-09-10T04:51:18.682Z,99.90
2022-09-10T04:53:48.503Z,99.90
2022-09-10T04:56:18.378Z,99.90
2022-09-10T04:58:46.827Z,99.90
2022-09-10T05:01:14.753Z,99.90
2022-09-10T05:03:44.550Z,99.90
2022-09-10T05:06:12.624Z,99.90
2022-09-10T05:08:43.382Z,99.90
2022-09-10T05:11:11.924Z,99.90
2022-09-10T05:13:39.834Z,99.90
2022-09-10T05:16:08.245Z,99.90
2022-09-10T05:18:36.138Z,99.90
2022-09-10T05:21:11.628Z,99.90
2022-09-10T05:23:42.265Z,99.90
2022-09-10T05:26:10.567Z,99.90
2022-09-10T05:28:39.224Z,99.90
2022-09-10T05:31:10.371Z,99.90
2022-09-10T05:36:23.808Z,99.90
2022-09-10T05:38:52.698Z,99.90
2022-09-10T05:41:24.534Z,99.90
2022-09-10T05:43:54.540Z,99.90
2022-09-10T05:46:23.049Z,99.90
2022-09-10T05:48:54.787Z,99.90
2022-09-10T05:51:22.691Z,99.90
2022-09-10T05:53:52.283Z,99.90
2022-09-10T05:56:21.405Z,99.90
2022-09-10T05:59:02.640Z,99.90
2022-09-10T06:01:32.762Z,99.90
2022-09-10T07:07:21.686Z,99.90
2022-09-10T07:22:31.356Z,99.90
2022-09-10T07:25:03.506Z,99.90
2022-09-10T07:27:40.822Z,99.90
2022-09-10T07:30:09.715Z,99.90
2022-09-10T07:32:36.964Z,99.90
2022-09-10T07:35:13.685Z,99.90
2022-09-10T07:38:01.584Z,99.90
2022-09-10T07:43:56.062Z,99.90
2022-09-10T07:46:52.256Z,99.90
2022-09-10T07:49:21.075Z,99.90
2022-09-10T07:52:08.250Z,99.90
2022-09-10T07:54:43.572Z,99.90
2022-09-10T07:57:11.031Z,99.90
2022-09-10T07:59:55.783Z,99.90
2022-09-10T08:02:32.759Z,99.90
2022-09-10T08:05:04.530Z,99.90
2022-09-10T08:07:34.149Z,99.90
2022-09-10T08:10:01.611Z,99.90
2022-09-10T08:12:28.959Z,99.90
2022-09-10T08:14:58.021Z,99.90
2022-09-10T08:17:28.999Z,99.90
2022-09-10T08:20:01.539Z,99.90
2022-09-10T08:22:28.797Z,99.90
2022-09-10T08:24:57.481Z,99.90
2022-09-10T08:27:29.821Z,99.90
2022-09-10T08:29:58.583Z,99.90
2022-09-10T08:32:26.574Z,99.90
2022-09-10T08:34:54.201Z,99.90
2022-09-10T08:37:22.050Z,99.90
2022-09-10T08:39:50.915Z,99.90
2022-09-10T08:42:32.579Z,99.90
2022-09-10T08:45:23.736Z,99.90
2022-09-10T08:48:18.552Z,99.90
2022-09-10T08:51:00.209Z,99.90
2022-09-10T08:54:01.646Z,99.90
2022-09-10T08:56:29.992Z,99.90
2022-09-10T08:59:05.750Z,99.90
2022-09-10T09:02:10.763Z,99.90
2022-09-10T09:05:24.078Z,99.90
2022-09-10T09:07:56.585Z,99.90
2022-09-10T09:10:57.065Z,99.90
2022-09-10T09:13:32.429Z,99.90
2022-09-10T09:20:04.307Z,99.90
2022-09-10T09:22:40.106Z,99.90
2022-09-10T09:25:23.405Z,99.90
2022-09-10T09:31:28.870Z,99.90
2022-09-10T09:35:01.396Z,99.90
2022-09-10T09:37:33.926Z,99.90
2022-09-10T09:40:45.688Z,99.90
2022-09-10T09:46:17.814Z,99.90
2022-09-10T09:48:53.761Z,98.20
2022-09-10T09:51:25.062Z,98.10
2022-09-10T09:54:34.170Z,96.70
2022-09-10T09:56:51.923Z,96.10
2022-09-10T09:59:27.904Z,93.80
2022-09-10T10:02:18.014Z,91.70
2022-09-10T10:05:24.094Z,90.60
2022-09-10T10:07:51.515Z,90.20
2022-09-10T10:10:27.307Z,91.80
2022-09-10T10:12:56.094Z,89.90
2022-09-10T10:15:42.490Z,91.00
2022-09-10T10:18:33.512Z,91.30
2022-09-10T10:21:10.672Z,89.30
2022-09-10T10:23:40.430Z,89.40
2022-09-10T10:26:21.924Z,87.70
2022-09-10T10:29:01.858Z,87.20
2022-09-10T10:31:46.933Z,88.10
2022-09-10T10:34:57.372Z,86.40
2022-09-10T10:37:27.499Z,85.30
2022-09-10T10:40:26.751Z,83.90
2022-09-10T10:43:07.318Z,83.80
2022-09-10T10:45:40.660Z,82.40
2022-09-10T10:48:12.126Z,83.90
2022-09-10T10:50:57.685Z,83.20
2022-09-10T10:53:43.535Z,83.30
2022-09-10T10:56:20.840Z,83.00
2022-09-10T10:59:11.300Z,85.40
2022-09-10T11:01:48.866Z,84.30
2022-09-10T11:04:34.641Z,83.80
2022-09-10T11:07:10.214Z,82.90
2022-09-10T11:10:11.800Z,82.30
2022-09-10T11:12:53.435Z,80.20
2022-09-10T11:15:37.705Z,79.70
2022-09-10T11:18:36.352Z,77.80
2022-09-10T11:21:30.517Z,77.50
2022-09-10T11:23:57.906Z,78.90
2022-09-10T11:26:41.842Z,79.70
2022-09-10T11:29:36.888Z,75.90
2022-09-10T11:32:18.626Z,76.10
2022-09-10T11:35:15.192Z,74.30
2022-09-10T11:38:13.359Z,72.10
2022-09-10T11:40:59.219Z,72.50
2022-09-10T11:43:37.697Z,70.90
2022-09-10T11:46:12.201Z,68.90
2022-09-10T11:48:47.077Z,70.00
2022-09-10T11:51:38.694Z,70.50
2022-09-10T11:54:19.029Z,71.50
2022-09-10T11:57:01.822Z,70.90
2022-09-10T11:59:39.122Z,70.60
2022-09-10T12:02:21.447Z,70.00
2022-09-10T12:05:01.213Z,69.90
2022-09-10T12:07:34.580Z,69.50
2022-09-10T12:10:22.024Z,70.00
2022-09-10T12:12:50.574Z,71.00
2022-09-10T12:15:28.226Z,69.60
2022-09-10T12:17:59.821Z,69.70
2022-09-10T12:20:55.234Z,71.10
2022-09-10T12:23:44.600Z,70.60
2022-09-10T12:26:20.227Z,70.20
2022-09-10T12:28:53.776Z,70.60
2022-09-10T12:31:22.531Z,69.20
2022-09-10T12:33:51.362Z,68.10
2022-09-10T12:36:28.036Z,66.90
2022-09-10T12:39:16.531Z,68.30
2022-09-10T12:41:43.775Z,68.80
2022-09-10T12:44:34.692Z,68.70
2022-09-10T12:47:14.390Z,65.30
2022-09-10T12:49:57.547Z,64.70
2022-09-10T12:52:43.354Z,65.00
2022-09-10T12:55:36.377Z,64.80
2022-09-10T12:58:09.450Z,65.30
2022-09-10T13:00:49.267Z,65.70
2022-09-10T13:03:18.530Z,65.50
2022-09-10T13:05:45.829Z,65.10
2022-09-10T13:08:38.516Z,64.10
2022-09-10T13:11:22.669Z,64.20
2022-09-10T13:14:00.706Z,65.60
2022-09-10T13:16:28.295Z,65.00
2022-09-10T13:19:13.911Z,64.50
2022-09-10T13:21:41.987Z,65.30
2022-09-10T13:24:34.287Z,64.20
2022-09-10T13:27:36.055Z,64.20
2022-09-10T13:30:16.766Z,65.60
2022-09-10T13:32:55.473Z,66.00
2022-09-10T13:35:47.725Z,65.40
2022-09-10T13:38:54.207Z,66.40
2022-09-10T13:41:48.035Z,65.00
2022-09-10T13:44:47.932Z,63.50
2022-09-10T13:47:39.607Z,65.70
2022-09-10T13:50:13.571Z,65.20
2022-09-10T13:52:45.466Z,66.40
2022-09-10T13:55:28.573Z,66.30
2022-09-10T13:58:00.735Z,66.00
2022-09-10T14:00:32.790Z,65.60
2022-09-10T14:03:01.046Z,66.00
2022-09-10T14:05:39.539Z,66.50
2022-09-10T14:08:14.343Z,66.80
2022-09-10T14:10:56.077Z,66.00
2022-09-10T14:13:38.449Z,65.10
2022-09-10T14:16:07.280Z,65.90
2022-09-10T14:18:49.968Z,64.80
2022-09-10T14:21:19.647Z,65.90
2022-09-10T14:23:49.303Z,65.40
2022-09-10T14:26:27.142Z,66.10
2022-09-10T14:29:01.282Z,65.70
2022-09-10T14:31:30.609Z,63.60
2022-09-10T14:33:59.809Z,64.80
2022-09-10T14:36:30.253Z,64.70
2022-09-10T14:39:17.012Z,64.50
2022-09-10T14:41:44.773Z,65.70
2022-09-10T14:44:22.544Z,66.80
2022-09-10T14:47:00.812Z,66.30
2022-09-10T14:49:38.051Z,64.90
2022-09-10T14:52:08.073Z,66.10
2022-09-10T14:54:35.633Z,65.60
2022-09-10T14:57:10.286Z,64.10
2022-09-10T14:59:40.194Z,64.50
2022-09-10T15:02:23.119Z,65.40
2022-09-10T15:04:51.131Z,64.80
2022-09-10T15:07:18.500Z,65.20
2022-09-10T15:09:47.437Z,65.20
2022-09-10T15:12:29.559Z,63.30
2022-09-10T15:14:58.231Z,62.80
2022-09-10T15:17:25.873Z,63.50
2022-09-10T15:19:55.516Z,64.10
2022-09-10T15:22:28.473Z,64.10
2022-09-10T15:25:09.765Z,63.70
2022-09-10T15:27:37.905Z,63.50
2022-09-10T15:30:06.346Z,63.30
2022-09-10T15:32:33.893Z,64.80
2022-09-10T15:35:01.469Z,63.00
2022-09-10T15:37:28.813Z,63.80
2022-09-10T15:39:57.659Z,64.90
2022-09-10T15:42:25.177Z,66.70
2022-09-10T15:44:52.489Z,66.30
2022-09-10T15:47:20.088Z,64.20
2022-09-10T15:49:47.460Z,63.80
2022-09-10T15:52:14.799Z,64.70
2022-09-10T15:54:43.407Z,64.60
2022-09-10T15:57:10.812Z,64.50
2022-09-10T15:59:38.060Z,65.40
2022-09-10T16:02:06.739Z,65.40
2022-09-10T16:04:36.299Z,65.90
2022-09-10T16:07:08.739Z,66.30
2022-09-10T16:09:36.113Z,67.30
2022-09-10T16:12:04.424Z,68.00
2022-09-10T16:14:32.918Z,68.00
2022-09-10T16:17:01.294Z,68.90
2022-09-10T16:19:28.526Z,68.90
2022-09-10T16:21:55.954Z,70.40
2022-09-10T16:24:23.260Z,70.50
2022-09-10T16:26:51.394Z,70.40
2022-09-10T16:29:19.829Z,70.50
2022-09-10T16:31:47.363Z,69.80
2022-09-10T16:34:18.746Z,70.60
2022-09-10T16:36:49.271Z,70.80
2022-09-10T16:39:17.326Z,69.60
2022-09-10T16:41:47.453Z,69.30
2022-09-10T16:44:16.679Z,70.70
2022-09-10T16:46:45.150Z,69.50
2022-09-10T16:49:14.613Z,71.00
2022-09-10T16:51:43.408Z,70.80
2022-09-10T16:54:11.817Z,70.40
2022-09-10T16:56:42.403Z,71.10
2022-09-10T16:59:15.725Z,71.00
2022-09-10T17:01:44.619Z,71.00
2022-09-10T17:04:28.347Z,71.80
2022-09-10T17:06:57.663Z,71.30
2022-09-10T17:09:25.482Z,72.20
2022-09-10T17:11:52.984Z,72.10
2022-09-10T17:14:20.224Z,71.80
2022-09-10T17:16:48.619Z,72.40
2022-09-10T17:19:20.270Z,72.40
2022-09-10T17:21:51.454Z,72.80
2022-09-10T17:24:21.232Z,72.70
2022-09-10T17:26:49.304Z,73.20
2022-09-10T17:29:19.401Z,73.20
2022-09-10T17:31:47.880Z,72.70
2022-09-10T17:34:16.586Z,73.10
2022-09-10T17:36:46.282Z,73.20
2022-09-10T17:39:14.653Z,72.90
2022-09-10T17:41:43.299Z,73.30
2022-09-10T17:44:12.255Z,73.20
2022-09-10T17:46:40.200Z,73.10
2022-09-10T17:49:10.277Z,72.00
2022-09-10T17:51:37.838Z,72.30
2022-09-10T17:54:05.273Z,71.50
2022-09-10T17:56:32.853Z,71.20
2022-09-10T17:59:02.927Z,70.70
2022-09-10T18:01:39.547Z,70.50
2022-09-10T18:04:08.295Z,70.70
2022-09-10T18:06:39.016Z,71.20
2022-09-10T18:09:07.543Z,71.70
2022-09-10T18:11:38.380Z,72.00
2022-09-10T18:14:07.465Z,71.40
2022-09-10T18:16:37.608Z,71.90
2022-09-10T18:19:14.264Z,70.80
2022-09-10T18:21:44.157Z,69.70
2022-09-10T18:24:14.876Z,69.30
2022-09-10T18:26:46.069Z,69.30
2022-09-10T18:29:20.791Z,69.30
2022-09-10T18:31:54.839Z,69.60
2022-09-10T18:34:25.699Z,70.80
2022-09-10T18:36:55.923Z,71.30
2022-09-10T18:39:25.754Z,73.80
2022-09-10T18:41:54.340Z,74.80
2022-09-10T18:44:25.414Z,73.50
2022-09-10T18:46:53.871Z,74.20
2022-09-10T18:49:24.134Z,74.70
2022-09-10T18:51:52.966Z,74.20
2022-09-10T18:54:22.778Z,72.80
2022-09-10T18:56:51.387Z,73.50
2022-09-10T18:59:20.946Z,73.40
2022-09-10T19:01:50.768Z,73.50
2022-09-10T19:04:22.341Z,73.50
2022-09-10T19:06:50.364Z,73.80
2022-09-10T19:09:24.489Z,74.40
2022-09-10T19:11:54.829Z,74.20
2022-09-10T19:14:28.293Z,74.60
2022-09-10T19:17:00.295Z,74.90
2022-09-10T19:19:50.707Z,75.10
2022-09-10T19:22:18.873Z,76.50
2022-09-10T19:24:55.033Z,77.10
2022-09-10T19:27:24.578Z,77.00
2022-09-10T19:29:52.790Z,77.00
2022-09-10T19:32:20.658Z,77.00
2022-09-10T19:34:52.187Z,77.80
2022-09-10T19:37:20.718Z,78.90
2022-09-10T19:39:48.615Z,78.10
2022-09-10T19:42:19.823Z,78.80
2022-09-10T19:44:48.728Z,78.40
2022-09-10T19:47:16.056Z,79.10
2022-09-10T19:49:43.980Z,79.50
2022-09-10T19:52:11.978Z,80.20
2022-09-10T19:54:40.342Z,80.80
2022-09-10T19:57:08.109Z,81.20
2022-09-10T19:59:35.996Z,82.10
2022-09-10T20:02:03.640Z,82.20
2022-09-10T20:04:31.572Z,82.30
2022-09-10T20:06:59.471Z,82.40
2022-09-10T20:09:27.664Z,83.50
2022-09-10T20:11:55.321Z,83.20
2022-09-10T20:14:23.395Z,83.40
2022-09-10T20:16:51.462Z,83.90
2022-09-10T20:19:20.822Z,84.70
2022-09-10T20:21:48.789Z,85.10
2022-09-10T20:24:16.984Z,85.70
2022-09-10T20:26:45.788Z,85.80
2022-09-10T20:29:24.553Z,86.60
2022-09-10T20:31:53.116Z,87.60
2022-09-10T20:34:22.727Z,87.60
2022-09-10T20:36:51.759Z,88.10
2022-09-10T20:39:22.674Z,88.40
2022-09-10T20:41:50.307Z,89.20
2022-09-10T20:44:18.303Z,89.80
2022-09-10T20:46:46.240Z,90.00
2022-09-10T20:49:16.583Z,90.20
2022-09-10T20:51:45.338Z,90.30
2022-09-10T20:54:16.850Z,90.40
2022-09-10T20:56:45.537Z,90.50
2022-09-10T20:59:16.370Z,90.50
2022-09-10T21:01:46.427Z,90.80
2022-09-10T21:04:34.922Z,90.60
2022-09-10T21:07:02.325Z,90.60
2022-09-10T21:09:30.152Z,91.00
2022-09-10T21:12:00.015Z,90.70
2022-09-10T21:14:27.985Z,90.90
2022-09-10T21:16:55.571Z,91.60
2022-09-10T21:19:23.202Z,91.60
2022-09-10T21:21:50.825Z,91.00
2022-09-10T21:24:20.704Z,91.90
2022-09-10T21:26:49.568Z,92.00
2022-09-10T21:29:21.467Z,91.50
2022-09-10T21:31:51.036Z,91.30
2022-09-10T21:34:19.963Z,91.10
2022-09-10T21:36:47.464Z,91.10
2022-09-10T21:39:17.082Z,91.40
2022-09-10T21:41:50.150Z,91.20
2022-09-10T21:44:23.116Z,91.20
2022-09-10T21:46:51.328Z,91.30
2022-09-10T21:49:20.663Z,91.10
2022-09-10T21:51:48.261Z,91.10
2022-09-10T21:54:19.412Z,90.90
2022-09-10T21:56:47.660Z,91.20
2022-09-10T21:59:16.482Z,90.80
2022-09-10T22:01:46.272Z,90.40
2022-09-10T22:04:20.032Z,90.60
2022-09-10T22:06:49.875Z,90.70
2022-09-10T22:09:18.185Z,90.60
2022-09-10T22:11:50.378Z,91.50
2022-09-10T22:14:23.100Z,91.80
2022-09-10T22:16:51.707Z,91.90
2022-09-10T22:19:23.171Z,91.70
2022-09-10T22:21:52.488Z,92.10
2022-09-10T22:24:20.448Z,92.10
2022-09-10T22:26:49.319Z,91.90
2022-09-10T22:29:18.667Z,92.00
2022-09-10T22:31:47.141Z,92.60
2022-09-10T22:34:16.473Z,92.40
2022-09-10T22:36:46.595Z,92.60
2022-09-10T22:42:36.489Z,93.00
2022-09-10T22:45:04.302Z,93.50
2022-09-10T22:47:31.507Z,93.10
2022-09-10T22:50:00.544Z,93.10
2022-09-10T22:52:32.878Z,93.10
2022-09-10T22:55:00.695Z,93.30
2022-09-10T22:57:29.522Z,93.80
2022-09-10T23:00:00.085Z,93.30
2022-09-10T23:05:31.062Z,93.20
2022-09-10T23:07:58.424Z,93.40
2022-09-10T23:10:26.702Z,93.20
2022-09-10T23:16:19.161Z,93.60
2022-09-10T23:21:59.642Z,93.60
2022-09-10T23:24:35.936Z,94.20
2022-09-10T23:30:02.605Z,94.00
